Wetterdaten: Woche 24.06.13 - 30.06.13 (KW26)
Datum Zeit Temp. A. Feuchte A. Luftdruck Regen Wind Richtung Taupunkt Windchill Windben
24.06.2013 00:00 21,9 C 66 % 1011,6 hPa 0,0 l/m 1,4 km/h N 15,3 C 21,9 C 8,4 km/h
24.06.2013 01:00 17,0 C 82 % 1013,0 hPa 1,2 l/m 15,2 km/h N 13,9 C 13,6 C 34,2 km/h
24.06.2013 02:00 14,2 C 83 % 1014,4 hPa 7,2 l/m 17,9 km/h N 11,3 C 9,3 C 39,8 km/h
24.06.2013 03:00 13,4 C 83 % 1014,5 hPa 4,5 l/m 16,8 km/h N 10,5 C 8,6 C 39,8 km/h
24.06.2013 04:00 13,3 C 82 % 1014,2 hPa 1,2 l/m 14,7 km/h N 10,3 C 9,2 C 37,0 km/h
24.06.2013 05:00 13,5 C 80 % 1014,4 hPa 0,6 l/m 14,5 km/h N 10,1 C 9,6 C 35,0 km/h
24.06.2013 06:00 13,4 C 80 % 1014,3 hPa 0,6 l/m 17,0 km/h N 10,0 C 8,6 C 37,0 km/h
24.06.2013 07:00 13,6 C 80 % 1014,3 hPa 0,0 l/m 17,4 km/h N 10,3 C 8,8 C 35,8 km/h
24.06.2013 08:00 13,5 C 81 % 1014,7 hPa 0,0 l/m 15,6 km/h N 10,2 C 9,2 C 39,4 km/h
24.06.2013 09:00 12,7 C 83 % 1015,3 hPa 0,0 l/m 13,5 km/h N 9,9 C 9,1 C 30,6 km/h
24.06.2013 10:00 12,4 C 83 % 1015,8 hPa 0,0 l/m 10,4 km/h N 9,7 C 10,1 C 25,0 km/h
24.06.2013 11:00 12,3 C 83 % 1015,9 hPa 2,9 l/m 11,5 km/h N 9,4 C 9,4 C 28,2 km/h
24.06.2013 12:00 12,5 C 82 % 1015,5 hPa 3,9 l/m 11,5 km/h N 9,6 C 9,7 C 30,6 km/h
24.06.2013 13:00 12,7 C 83 % 1015,6 hPa 4,2 l/m 11,5 km/h N 9,9 C 9,9 C 32,6 km/h
24.06.2013 14:00 12,8 C 82 % 1015,7 hPa 3,6 l/m 9,8 km/h N 9,8 C 10,8 C 24,5 km/h
24.06.2013 15:00 12,8 C 83 % 1015,7 hPa 2,3 l/m 9,7 km/h N 9,9 C 10,9 C 27,0 km/h
24.06.2013 16:00 12,7 C 83 % 1015,4 hPa 2,6 l/m 10,8 km/h N 9,8 C 10,1 C 27,0 km/h
24.06.2013 17:00 12,6 C 83 % 1014,8 hPa 2,3 l/m 11,1 km/h N 9,7 C 9,9 C 27,8 km/h
24.06.2013 18:00 12,6 C 83 % 1015,0 hPa 0,0 l/m 11,9 km/h N 9,8 C 9,5 C 29,0 km/h
24.06.2013 19:00 12,7 C 84 % 1014,8 hPa 0,0 l/m 13,2 km/h N 10,0 C 9,2 C 30,6 km/h
24.06.2013 20:00 13,1 C 82 % 1014,8 hPa 0,0 l/m 12,2 km/h N 10,1 C 10,0 C 30,2 km/h
24.06.2013 21:00 13,4 C 82 % 1014,3 hPa 0,0 l/m 14,1 km/h N 10,5 C 9,7 C 35,0 km/h
24.06.2013 22:00 13,5 C 82 % 1014,4 hPa 0,0 l/m 15,6 km/h N 10,5 C 9,2 C 33,0 km/h
24.06.2013 23:00 13,1 C 82 % 1014,2 hPa 0,0 l/m 15,0 km/h N 10,1 C 9,0 C 36,2 km/h
25.06.2013 00:00 13,0 C 83 % 1014,0 hPa 0,3 l/m 13,5 km/h N 10,2 C 9,4 C 32,6 km/h
25.06.2013 01:00 12,8 C 84 % 1013,7 hPa 2,3 l/m 13,2 km/h N 10,1 C 9,2 C 29,8 km/h
25.06.2013 02:00 12,7 C 84 % 1013,0 hPa 3,1 l/m 16,4 km/h N 10,0 C 7,9 C 36,6 km/h
25.06.2013 03:00 12,8 C 84 % 1012,6 hPa 0,3 l/m 17,9 km/h N 10,2 C 7,6 C 41,0 km/h
25.06.2013 04:00 12,9 C 84 % 1012,7 hPa 0,0 l/m 16,6 km/h N 10,2 C 8,1 C 41,3 km/h
25.06.2013 05:00 13,2 C 83 % 1012,9 hPa 0,0 l/m 16,3 km/h N 10,3 C 8,6 C 37,0 km/h
25.06.2013 06:00 13,4 C 80 % 1013,0 hPa 0,0 l/m 16,2 km/h N 10,0 C 8,9 C 37,8 km/h
25.06.2013 07:00 14,0 C 77 % 1013,0 hPa 0,0 l/m 18,7 km/h N 10,1 C 8,8 C 39,0 km/h
25.06.2013 08:00 14,4 C 76 % 1013,3 hPa 0,3 l/m 19,5 km/h N 10,2 C 9,1 C 39,8 km/h
25.06.2013 09:00 14,8 C 75 % 1013,4 hPa 0,0 l/m 21,3 km/h N 10,4 C 9,1 C 45,1 km/h
25.06.2013 10:00 14,6 C 77 % 1014,2 hPa 0,0 l/m 17,4 km/h N 10,7 C 10,0 C 36,2 km/h
25.06.2013 11:00 14,9 C 80 % 1014,7 hPa 0,0 l/m 15,9 km/h N 11,4 C 10,7 C 35,4 km/h
25.06.2013 12:00 15,2 C 77 % 1015,2 hPa 0,0 l/m 15,2 km/h N 11,2 C 11,4 C 31,4 km/h
25.06.2013 13:00 15,2 C 77 % 1015,8 hPa 0,0 l/m 15,6 km/h N 11,2 C 11,3 C 35,4 km/h
25.06.2013 14:00 15,1 C 75 % 1016,3 hPa 0,0 l/m 18,7 km/h N 10,7 C 10,2 C 39,0 km/h
25.06.2013 15:00 15,5 C 74 % 1016,8 hPa 0,0 l/m 17,6 km/h N 10,8 C 11,0 C 38,2 km/h
25.06.2013 16:00 15,3 C 75 % 1017,3 hPa 0,0 l/m 15,2 km/h N 10,8 C 11,5 C 33,0 km/h
25.06.2013 17:00 15,6 C 74 % 1017,5 hPa 0,0 l/m 12,2 km/h N 10,9 C 13,0 C 33,4 km/h
25.06.2013 18:00 15,7 C 72 % 1017,6 hPa 0,0 l/m 11,4 km/h N 10,5 C 13,3 C 27,8 km/h
25.06.2013 19:00 15,4 C 70 % 1017,7 hPa 0,0 l/m 10,3 km/h N 10,1 C 13,6 C 24,1 km/h
25.06.2013 20:00 14,8 C 74 % 1018,3 hPa 0,0 l/m 8,6 km/h N 10,2 C 13,6 C 26,1 km/h
25.06.2013 21:00 13,7 C 78 % 1019,0 hPa 0,0 l/m 12,1 km/h N 10,0 C 10,8 C 28,6 km/h
25.06.2013 22:00 13,0 C 78 % 1019,7 hPa 0,0 l/m 11,0 km/h N 9,1 C 10,4 C 26,9 km/h
25.06.2013 23:00 13,0 C 77 % 1020,0 hPa 0,0 l/m 8,2 km/h N 9,0 C 11,9 C 23,7 km/h
26.06.2013 00:00 12,9 C 80 % 1020,1 hPa 0,0 l/m 9,3 km/h N 9,4 C 11,1 C 23,3 km/h
26.06.2013 01:00 12,8 C 78 % 1020,2 hPa 0,0 l/m 10,3 km/h N 9,0 C 10,5 C 27,0 km/h
26.06.2013 02:00 12,5 C 79 % 1020,0 hPa 0,0 l/m 10,6 km/h N 8,9 C 10,1 C 29,4 km/h
26.06.2013 03:00 12,3 C 79 % 1020,0 hPa 0,0 l/m 10,8 km/h N 8,8 C 9,8 C 26,5 km/h
26.06.2013 04:00 12,0 C 80 % 1020,0 hPa 0,0 l/m 8,9 km/h N 8,6 C 10,4 C 23,3 km/h
26.06.2013 05:00 12,0 C 80 % 1020,2 hPa 0,0 l/m 7,6 km/h N 8,7 C 11,2 C 21,3 km/h
26.06.2013 06:00 12,4 C 80 % 1020,4 hPa 0,0 l/m 7,5 km/h N 8,9 C 11,6 C 21,7 km/h
26.06.2013 07:00 12,9 C 78 % 1020,6 hPa 0,0 l/m 10,1 km/h N 9,1 C 10,8 C 24,5 km/h
26.06.2013 08:00 13,6 C 74 % 1021,0 hPa 0,0 l/m 10,7 km/h N 9,1 C 11,4 C 29,0 km/h
26.06.2013 09:00 13,7 C 73 % 1021,5 hPa 0,0 l/m 14,4 km/h N 9,0 C 9,8 C 32,6 km/h
26.06.2013 10:00 13,9 C 74 % 1021,8 hPa 0,0 l/m 13,1 km/h N 9,4 C 10,5 C 29,8 km/h
26.06.2013 11:00 14,5 C 73 % 1022,2 hPa 0,0 l/m 14,6 km/h N 9,6 C 10,7 C 32,2 km/h
26.06.2013 12:00 14,3 C 75 % 1022,6 hPa 0,0 l/m 11,9 km/h N 9,8 C 11,5 C 30,2 km/h
26.06.2013 13:00 14,5 C 74 % 1022,9 hPa 0,0 l/m 12,8 km/h N 9,8 C 11,4 C 29,8 km/h
26.06.2013 14:00 14,7 C 74 % 1023,1 hPa 0,0 l/m 11,9 km/h N 10,1 C 12,0 C 28,1 km/h
26.06.2013 15:00 14,2 C 77 % 1023,4 hPa 0,5 l/m 12,1 km/h N 10,3 C 11,3 C 29,4 km/h
26.06.2013 16:00 14,3 C 77 % 1023,7 hPa 0,0 l/m 9,4 km/h N 10,3 C 12,7 C 24,1 km/h
26.06.2013 17:00 14,0 C 75 % 1023,8 hPa 0,0 l/m 8,6 km/h N 9,6 C 12,8 C 22,5 km/h
26.06.2013 18:00 13,6 C 77 % 1024,0 hPa 0,0 l/m 6,4 km/h N 9,7 C 13,4 C 17,7 km/h
26.06.2013 19:00 13,4 C 74 % 1024,2 hPa 0,0 l/m 6,7 km/h N 8,9 C 12,9 C 19,7 km/h
26.06.2013 20:00 12,7 C 73 % 1024,7 hPa 0,0 l/m 6,3 km/h N 8,0 C 12,5 C 18,1 km/h
26.06.2013 21:00 11,7 C 74 % 1025,3 hPa 0,0 l/m 3,1 km/h N 7,1 C 11,7 C 12,9 km/h
26.06.2013 22:00 10,9 C 75 % 1025,5 hPa 0,0 l/m 1,8 km/h N 6,6 C 10,9 C 10,9 km/h
26.06.2013 23:00 9,9 C 78 % 1025,8 hPa 0,0 l/m 0,8 km/h N 6,3 C 9,9 C 4,8 km/h
27.06.2013 00:00 9,5 C 80 % 1025,9 hPa 0,0 l/m 0,9 km/h N 6,2 C 9,5 C 6,4 km/h
27.06.2013 01:00 9,1 C 81 % 1025,7 hPa 0,0 l/m 0,8 km/h N 6,0 C 9,1 C 6,4 km/h
27.06.2013 02:00 9,7 C 77 % 1025,3 hPa 0,0 l/m 2,3 km/h N 5,9 C 9,7 C 11,6 km/h
27.06.2013 03:00 10,3 C 76 % 1025,0 hPa 0,0 l/m 3,6 km/h N 6,2 C 10,3 C 12,9 km/h
27.06.2013 04:00 9,9 C 77 % 1024,9 hPa 0,0 l/m 2,5 km/h N 6,0 C 9,9 C 9,6 km/h
27.06.2013 05:00 10,1 C 77 % 1024,8 hPa 0,0 l/m 2,4 km/h N 6,2 C 10,1 C 12,1 km/h
27.06.2013 06:00 11,2 C 72 % 1024,5 hPa 0,0 l/m 5,0 km/h N 6,4 C 11,2 C 15,7 km/h
27.06.2013 07:00 12,1 C 70 % 1024,6 hPa 0,0 l/m 6,9 km/h N 6,8 C 11,6 C 18,1 km/h
27.06.2013 08:00 12,8 C 68 % 1024,6 hPa 0,0 l/m 8,3 km/h N 7,1 C 11,7 C 22,9 km/h
27.06.2013 09:00 14,2 C 63 % 1024,3 hPa 0,0 l/m 7,3 km/h N 7,2 C 13,7 C 20,5 km/h
27.06.2013 10:00 14,5 C 62 % 1024,1 hPa 0,0 l/m 4,9 km/h N 7,2 C 14,5 C 16,9 km/h
27.06.2013 11:00 15,6 C 52 % 1023,9 hPa 0,0 l/m 5,3 km/h N 5,8 C 15,6 C 18,9 km/h
27.06.2013 12:00 15,8 C 51 % 1023,8 hPa 0,0 l/m 4,5 km/h N 5,6 C 15,8 C 16,5 km/h
27.06.2013 13:00 16,1 C 52 % 1023,3 hPa 0,0 l/m 4,7 km/h N 6,3 C 16,1 C 15,3 km/h
27.06.2013 14:00 16,0 C 56 % 1023,0 hPa 0,0 l/m 5,9 km/h N 7,2 C 16,0 C 14,5 km/h
27.06.2013 15:00 17,8 C 52 % 1022,3 hPa 0,0 l/m 7,3 km/h N 7,8 C 17,3 C 19,7 km/h
27.06.2013 16:00 18,0 C 50 % 1021,9 hPa 0,0 l/m 5,7 km/h N 7,4 C 17,9 C 18,1 km/h
27.06.2013 17:00 17,1 C 52 % 1021,7 hPa 0,0 l/m 5,7 km/h N 7,0 C 17,0 C 18,9 km/h
27.06.2013 18:00 18,2 C 49 % 1021,6 hPa 0,0 l/m 6,4 km/h N 7,4 C 18,0 C 16,5 km/h
27.06.2013 19:00 17,4 C 52 % 1021,6 hPa 0,0 l/m 6,0 km/h N 7,5 C 17,3 C 18,5 km/h
27.06.2013 20:00 15,5 C 60 % 1021,4 hPa 0,0 l/m 1,7 km/h N 7,7 C 15,5 C 8,1 km/h
27.06.2013 21:00 13,6 C 66 % 1021,4 hPa 0,0 l/m 0,0 km/h N 7,3 C 13,6 C 2,0 km/h
27.06.2013 22:00 11,7 C 72 % 1021,4 hPa 0,0 l/m 0,0 km/h N 6,8 C 11,7 C 0,0 km/h
27.06.2013 23:00 10,1 C 78 % 1021,6 hPa 0,0 l/m 0,0 km/h N 6,4 C 10,1 C 0,0 km/h
28.06.2013 00:00 9,5 C 82 % 1021,4 hPa 0,0 l/m 0,0 km/h N 6,5 C 9,5 C 0,0 km/h
28.06.2013 01:00 9,1 C 83 % 1021,2 hPa 0,0 l/m 0,0 km/h N 6,3 C 9,1 C 0,4 km/h
28.06.2013 02:00 8,9 C 84 % 1020,7 hPa 0,0 l/m 0,0 km/h N 6,3 C 8,9 C 0,0 km/h
28.06.2013 03:00 8,6 C 83 % 1020,4 hPa 0,0 l/m 0,0 km/h N 5,9 C 8,6 C 0,0 km/h
28.06.2013 04:00 8,6 C 84 % 1020,1 hPa 0,0 l/m 0,1 km/h N 6,1 C 8,6 C 2,0 km/h
28.06.2013 05:00 9,2 C 83 % 1019,8 hPa 0,0 l/m 0,0 km/h N 6,4 C 9,2 C 2,4 km/h
28.06.2013 06:00 9,9 C 81 % 1019,9 hPa 0,0 l/m 0,0 km/h N 6,9 C 9,9 C 1,6 km/h
28.06.2013 07:00 12,2 C 75 % 1019,8 hPa 0,0 l/m 3,3 km/h N 7,9 C 12,2 C 14,5 km/h
28.06.2013 08:00 14,5 C 67 % 1019,9 hPa 0,0 l/m 5,4 km/h N 8,5 C 14,5 C 15,7 km/h
28.06.2013 09:00 15,6 C 64 % 1019,8 hPa 0,0 l/m 9,0 km/h N 8,9 C 14,3 C 22,9 km/h
28.06.2013 10:00 16,8 C 62 % 1019,5 hPa 0,0 l/m 8,6 km/h N 9,4 C 15,7 C 20,9 km/h
28.06.2013 11:00 17,7 C 59 % 1019,3 hPa 0,0 l/m 7,2 km/h N 9,5 C 17,2 C 20,1 km/h
28.06.2013 12:00 18,3 C 54 % 1019,1 hPa 0,0 l/m 8,2 km/h N 8,8 C 17,5 C 21,7 km/h
28.06.2013 13:00 19,3 C 52 % 1018,8 hPa 0,0 l/m 7,0 km/h N 9,1 C 19,0 C 18,9 km/h
28.06.2013 14:00 19,5 C 52 % 1018,5 hPa 0,0 l/m 6,1 km/h N 9,3 C 19,5 C 17,7 km/h
28.06.2013 15:00 19,6 C 51 % 1018,2 hPa 0,0 l/m 6,6 km/h N 9,3 C 19,4 C 17,3 km/h
28.06.2013 16:00 19,8 C 52 % 1017,8 hPa 0,0 l/m 7,0 km/h N 9,7 C 19,5 C 19,3 km/h
28.06.2013 17:00 20,1 C 52 % 1017,5 hPa 0,0 l/m 5,5 km/h N 10,0 C 20,0 C 16,5 km/h
28.06.2013 18:00 18,9 C 53 % 1017,4 hPa 0,0 l/m 6,9 km/h N 9,1 C 18,7 C 19,3 km/h
28.06.2013 19:00 18,3 C 56 % 1017,6 hPa 0,0 l/m 7,6 km/h N 9,4 C 17,8 C 19,7 km/h
28.06.2013 20:00 17,2 C 59 % 1017,7 hPa 0,0 l/m 6,9 km/h N 9,0 C 16,8 C 20,1 km/h
28.06.2013 21:00 15,8 C 61 % 1018,2 hPa 0,0 l/m 8,9 km/h N 8,2 C 14,5 C 24,1 km/h
28.06.2013 22:00 15,2 C 64 % 1018,6 hPa 0,0 l/m 5,0 km/h N 8,4 C 15,2 C 16,5 km/h
28.06.2013 23:00 15,3 C 66 % 1018,9 hPa 0,0 l/m 6,9 km/h N 8,9 C 15,0 C 20,5 km/h
29.06.2013 00:00 15,2 C 67 % 1019,0 hPa 0,0 l/m 7,4 km/h N 9,0 C 14,6 C 21,7 km/h
29.06.2013 01:00 15,1 C 67 % 1018,8 hPa 0,0 l/m 7,4 km/h N 9,0 C 14,5 C 21,3 km/h
29.06.2013 02:00 14,8 C 68 % 1018,6 hPa 0,0 l/m 3,0 km/h N 8,8 C 14,8 C 11,3 km/h
29.06.2013 03:00 14,1 C 68 % 1018,5 hPa 0,0 l/m 2,1 km/h N 8,3 C 14,1 C 10,1 km/h
29.06.2013 04:00 13,9 C 68 % 1018,5 hPa 0,0 l/m 4,0 km/h N 8,1 C 13,9 C 13,7 km/h
29.06.2013 05:00 13,8 C 70 % 1018,4 hPa 0,0 l/m 4,8 km/h N 8,4 C 13,7 C 16,5 km/h
29.06.2013 06:00 14,1 C 70 % 1018,4 hPa 0,0 l/m 5,3 km/h N 8,8 C 14,1 C 18,1 km/h
29.06.2013 07:00 15,1 C 68 % 1018,5 hPa 0,0 l/m 7,4 km/h N 9,2 C 14,6 C 20,9 km/h
29.06.2013 08:00 16,7 C 65 % 1018,4 hPa 0,0 l/m 7,4 km/h N 10,0 C 16,2 C 19,3 km/h
29.06.2013 09:00 17,8 C 61 % 1018,4 hPa 0,0 l/m 8,0 km/h N 10,2 C 17,0 C 21,3 km/h
29.06.2013 10:00 18,8 C 57 % 1017,9 hPa 0,0 l/m 7,8 km/h N 10,2 C 18,2 C 22,9 km/h
29.06.2013 11:00 19,6 C 55 % 1017,3 hPa 0,0 l/m 8,9 km/h N 10,1 C 18,5 C 20,9 km/h
29.06.2013 12:00 20,4 C 53 % 1016,8 hPa 0,0 l/m 8,8 km/h N 10,5 C 19,5 C 24,1 km/h
29.06.2013 13:00 20,9 C 50 % 1016,3 hPa 0,0 l/m 8,2 km/h N 10,2 C 20,3 C 23,3 km/h
29.06.2013 14:00 21,5 C 50 % 1015,8 hPa 0,0 l/m 8,2 km/h N 10,6 C 20,8 C 21,7 km/h
29.06.2013 15:00 21,7 C 47 % 1015,3 hPa 0,0 l/m 7,8 km/h N 9,9 C 21,2 C 21,7 km/h
29.06.2013 16:00 21,9 C 49 % 1014,9 hPa 0,0 l/m 7,1 km/h N 10,5 C 21,6 C 22,5 km/h
29.06.2013 17:00 21,0 C 48 % 1014,8 hPa 0,0 l/m 7,1 km/h N 9,5 C 20,8 C 19,3 km/h
29.06.2013 18:00 21,1 C 49 % 1014,9 hPa 0,0 l/m 6,2 km/h N 9,8 C 21,0 C 17,7 km/h
29.06.2013 19:00 19,0 C 58 % 1015,0 hPa 0,0 l/m 3,6 km/h N 10,5 C 19,0 C 14,5 km/h
29.06.2013 20:00 18,6 C 58 % 1015,5 hPa 0,0 l/m 9,5 km/h N 10,2 C 17,3 C 24,5 km/h
29.06.2013 21:00 17,1 C 62 % 1016,5 hPa 0,0 l/m 9,2 km/h N 9,7 C 15,9 C 23,3 km/h
29.06.2013 22:00 16,2 C 69 % 1016,8 hPa 0,0 l/m 8,4 km/h N 10,4 C 15,0 C 20,5 km/h
29.06.2013 23:00 16,3 C 66 % 1016,9 hPa 0,0 l/m 8,0 km/h N 9,9 C 15,4 C 19,3 km/h
30.06.2013 00:00 16,1 C 66 % 1016,9 hPa 0,0 l/m 5,4 km/h N 9,8 C 16,1 C 21,3 km/h
30.06.2013 01:00 15,7 C 69 % 1017,3 hPa 0,0 l/m 3,9 km/h N 10,0 C 15,7 C 14,1 km/h
30.06.2013 02:00 15,5 C 71 % 1017,3 hPa 0,0 l/m 7,0 km/h N 10,3 C 15,1 C 16,9 km/h
30.06.2013 03:00 15,0 C 74 % 1017,3 hPa 0,0 l/m 7,1 km/h N 10,4 C 14,5 C 18,5 km/h
30.06.2013 04:00 14,9 C 76 % 1017,4 hPa 0,0 l/m 7,1 km/h N 10,7 C 14,4 C 19,7 km/h
30.06.2013 05:00 14,9 C 78 % 1017,3 hPa 0,0 l/m 7,2 km/h N 11,0 C 14,4 C 18,9 km/h
30.06.2013 06:00 14,9 C 79 % 1017,8 hPa 0,0 l/m 7,6 km/h N 11,2 C 14,3 C 21,3 km/h
30.06.2013 07:00 15,2 C 80 % 1018,3 hPa 0,0 l/m 8,1 km/h N 11,7 C 14,2 C 21,7 km/h
30.06.2013 08:00 15,4 C 79 % 1019,0 hPa 0,0 l/m 8,8 km/h N 11,7 C 14,1 C 22,5 km/h
30.06.2013 09:00 14,6 C 83 % 1019,7 hPa 0,0 l/m 6,5 km/h N 11,7 C 14,3 C 18,9 km/h
30.06.2013 10:00 14,9 C 80 % 1019,9 hPa 0,0 l/m 8,3 km/h N 11,5 C 13,9 C 23,7 km/h
30.06.2013 11:00 14,8 C 78 % 1020,6 hPa 0,0 l/m 10,4 km/h N 11,0 C 12,9 C 26,2 km/h
30.06.2013 12:00 15,6 C 73 % 1020,5 hPa 0,0 l/m 10,3 km/h N 10,7 C 13,7 C 24,5 km/h
30.06.2013 13:00 17,7 C 65 % 1019,7 hPa 0,0 l/m 12,2 km/h N 11,1 C 15,3 C 31,8 km/h
30.06.2013 14:00 19,1 C 58 % 1019,2 hPa 0,0 l/m 11,5 km/h N 10,6 C 17,2 C 27,8 km/h
30.06.2013 15:00 20,6 C 51 % 1018,7 hPa 0,0 l/m 8,9 km/h N 10,0 C 19,6 C 22,5 km/h
30.06.2013 16:00 20,7 C 49 % 1018,5 hPa 0,0 l/m 9,4 km/h N 9,6 C 19,6 C 26,5 km/h
30.06.2013 17:00 21,1 C 46 % 1018,3 hPa 0,0 l/m 10,1 km/h N 9,0 C 19,9 C 26,9 km/h
30.06.2013 18:00 20,7 C 46 % 1018,3 hPa 0,0 l/m 9,1 km/h N 8,6 C 19,7 C 22,5 km/h
30.06.2013 19:00 19,9 C 48 % 1018,3 hPa 0,0 l/m 6,1 km/h N 8,6 C 19,8 C 16,9 km/h
30.06.2013 20:00 18,7 C 51 % 1018,8 hPa 0,0 l/m 2,9 km/h N 8,3 C 18,7 C 10,9 km/h
30.06.2013 21:00 17,9 C 53 % 1019,3 hPa 0,0 l/m 1,0 km/h N 8,1 C 17,9 C 6,4 km/h
30.06.2013 22:00 17,1 C 56 % 1019,9 hPa 0,0 l/m 0,1 km/h N 8,3 C 17,1 C 2,0 km/h
30.06.2013 23:00 15,9 C 60 % 1020,3 hPa 0,0 l/m 0,9 km/h N 8,1 C 15,9 C 5,6 km/h
Min-Datum _ 28.06.13 30.06.13 24.06.13 - 24.06.13 - 27.06.13 25.06.13 24.06.13
_ Min-Zeit 04:15 18:00 00:00 - 00:00 - 12:00 03:00 00:00
Minimum _ 8,3 C 44 % 1011,2 hPa - 0,0 km/h - 4,7 C 6,8 C 0,0 km/h
Max-Datum _ 24.06.13 24.06.13 26.06.13 24.06.13 25.06.13 - 24.06.13 24.06.13 25.06.13
_ Max-Zeit 00:00 09:45 23:45 02:30 09:45 - 00:45 00:00 04:45
Maximum _ 22,6 C 84 % 1026,0 hPa 7,2 l/m 22,8 km/h
N
- 15,7 C 22,3 C 53,1 km/h
N
Durchschnitt _ 14,9 C 70 % 1018,7 hPa #43,9 l/m 8,6 km/h N 9,2 C 13,3 C 22,2 km/h